Norfolk, VA

8:51 AM EST on January 27, 2015 (GMT -0500)
Oceana Naval Air Station | Change Station
CLOSE
Current Station
Airport
Location: Oceana NAS,
Elevation: 23 ft
Nearby Weather Stations

Elev 23 ft 36.82 °N, 76.03 °W | Updated 55 minutes ago

Overcast
Overcast
33 °F
Feels Like 22 °F
N
18
Wind Variable Wind from NNW

Today
High -- | Low -- °F
--% Chance of Precip.
Yesterday
High -- | Low -- °F
Precip. -- in
7:11 AM 5:24 PM
First Quarter, 54% visible
Pressure 29.75 in
Visibility 7.0 miles
Clouds Overcast 1100 ft
Windchill 22 °F
Dew Point 28 °F
Humidity 82%
Rainfall 0.04 in
Snow Depth Not available.
UV 0 out of 12
Pollen .40 out of 12
Air Quality Not available.
Flu Activity Not available.
METAR KNTU 271256Z 33016KT 7SM -SN OVC011 01/M02 A2974 RMK AO2 SNE09B49 SLP072 P0000 T00061022 $

More Conditions Fewer Conditions

Pressure 29.75 in
Visibility 7.0 miles
Clouds Overcast 1100 ft
Windchill 22 °F
Dew Point 28 °F
Humidity 82%
Rainfall 0.04 in
Snow Depth Not available.
UV 0 out of 12
Pollen .40 out of 12
Air Quality Not available.
Flu Activity Not available.
METAR KNTU 271256Z 33016KT 7SM -SN OVC011 01/M02 A2974 RMK AO2 SNE09B49 SLP072 P0000 T00061022 $

More Conditions Fewer Conditions

10-Day Weather Forecast

Almanac

Astronomy

Jan. 27, 2015 Rise Set
Actual Time
Civil Twilight
Nautical Twilight
Astronomical Twilight
Moon
Length of Visible Light
Length of Day
Tomorrow will be .
, % of the Moon is Illuminated

Today's Extremes

State Highs State Lows

Community

WunderPhotos

Upload Photos

1,790,628 photos uploaded!

WunderBlogs® & News

Nearby

Air Quality

  Air Quality AQ Index Pollutant
Not available.

Snow Depth

Station Depth Elevation

Earthquake Activity

City Distance Mag. Time & Date
Minimum magnitude displayed is 2.5.

Coastal Water Temperatures

Place Temperature

Nearby Weather Stations